Huvudsida
METAR-TAF:

METAR-TAF

Flygplatser :

Turaif, Saudiarabien

latitud: 31-41N, longitud: 038-44E, höjd: 813 m

Aktuellt väderrapport

Denna rapport gjordes för 1 timme och 10 minuter sedan, klockan 09:00 UTC
Vind 6 kt från syd/sydost
Temperatur 36°C
Fuktighet 13%
Tryck 1014 hPa
Sikt 10 km eller mer
Inga moln under 1 500 m eller inga cumulonimbus

METAR: OETR 270900Z 15006KT CAVOK 36/03 Q1014

Tid: 13:10 (10:10 UTC)

Väderprognos

Denna rapport gjordes för 11 timmar och 10 minuter sedan, klockan 23:00 UTC
Prognos gäller från 27 kl. 00 UTC till 28 kl. 06 UTC
Vind 8 kt från nord/nordost
Sikt: 7000 m
Spridda moln på en höjd av 3000 ft
Blir
från 26 kl. 06 UTC till 26 kl. 08 UTC
Vind 14 kt från väst

TAF: OETR 262300Z 2700/2806 02008KT 7000 SCT030 BECMG 2606/2608 27014KT

Aktuella väderrapporter och prognoser från 4000 flygplatser (METAR- och TAF-rapporter).

De tillgängliga stationerna syns som gula och röda prickar på kartan.

För musen över prickarna för att se namnen på stationerna.

Klicka sedan för att få väderrapporter och prognoser.

För att ändra kartan: Klicka på de gröna knapparna med ett svart kors på för att zooma in; den gröna knappen med ett streck på för att zooma ut; eller på de gröna pilarna för angränsande kartor.


METAR-TAF: